createdAt,value
2022-11-06T00:01:08.526Z,8.46
2022-11-06T00:03:35.183Z,8.43
2022-11-06T00:06:27.767Z,8.42
2022-11-06T00:08:54.263Z,8.43
2022-11-06T00:11:20.834Z,8.43
2022-11-06T00:13:47.635Z,8.40
2022-11-06T00:16:14.581Z,8.38
2022-11-06T00:18:41.247Z,8.38
2022-11-06T00:21:13.669Z,8.40
2022-11-06T00:23:40.209Z,8.34
2022-11-06T00:26:08.165Z,8.34
2022-11-06T00:28:35.012Z,8.34
2022-11-06T00:31:03.252Z,8.34
2022-11-06T00:33:29.661Z,8.35
2022-11-06T00:35:59.052Z,8.34
2022-11-06T00:38:25.693Z,8.35
2022-11-06T00:40:52.030Z,8.31
2022-11-06T00:43:18.405Z,8.31
2022-11-06T00:45:44.782Z,8.27
2022-11-06T00:48:11.507Z,8.25
2022-11-06T00:50:38.092Z,8.25
2022-11-06T00:53:04.426Z,8.25
2022-11-06T00:55:30.780Z,8.23
2022-11-06T00:57:58.025Z,8.17
2022-11-06T01:00:24.385Z,8.18
2022-11-06T01:02:50.819Z,8.17
2022-11-06T01:05:17.366Z,8.16
2022-11-06T01:07:43.710Z,8.19
2022-11-06T01:10:10.099Z,8.17
2022-11-06T01:12:36.496Z,8.20
2022-11-06T01:15:02.898Z,8.18
2022-11-06T01:17:29.329Z,8.18
2022-11-06T01:19:55.743Z,8.18
2022-11-06T01:22:22.253Z,8.12
2022-11-06T01:24:48.764Z,8.16
2022-11-06T01:27:30.578Z,8.16
2022-11-06T01:29:56.966Z,8.17
2022-11-06T01:32:23.339Z,8.17
2022-11-06T01:34:51.012Z,8.20
2022-11-06T01:37:17.367Z,8.20
2022-11-06T01:39:43.760Z,8.21
2022-11-06T01:42:11.580Z,8.25
2022-11-06T01:44:41.107Z,8.29
2022-11-06T01:47:27.225Z,8.30
2022-11-06T01:49:57.324Z,8.32
2022-11-06T01:52:23.715Z,8.37
2022-11-06T01:54:57.403Z,8.36
2022-11-06T01:57:23.757Z,8.38
2022-11-06T01:59:50.744Z,8.37
2022-11-06T02:02:17.365Z,8.40
2022-11-06T02:04:45.212Z,8.35
2022-11-06T02:07:12.086Z,8.38
2022-11-06T02:09:38.457Z,8.40
2022-11-06T02:12:30.993Z,8.42
2022-11-06T02:15:01.952Z,8.41
2022-11-06T02:17:42.959Z,8.41
2022-11-06T02:21:03.439Z,8.33
2022-11-06T02:24:07.179Z,8.35
2022-11-06T02:26:57.165Z,8.37
2022-11-06T02:30:05.325Z,8.40
2022-11-06T02:32:40.975Z,8.41
2022-11-06T02:35:35.095Z,8.43
2022-11-06T02:38:05.290Z,8.41
2022-11-06T02:40:33.191Z,8.41
2022-11-06T02:43:00.780Z,8.44
2022-11-06T02:45:27.131Z,8.41
2022-11-06T02:47:54.555Z,8.41
2022-11-06T02:50:33.704Z,8.46
2022-11-06T02:53:05.113Z,8.46
2022-11-06T02:55:42.341Z,8.47
2022-11-06T02:58:28.359Z,8.47
2022-11-06T03:01:05.990Z,8.48
2022-11-06T03:03:33.848Z,8.45
2022-11-06T03:06:26.506Z,8.46
2022-11-06T03:08:55.836Z,8.48
2022-11-06T03:11:23.039Z,8.46
2022-11-06T03:14:00.686Z,8.48
2022-11-06T03:16:42.300Z,8.45
2022-11-06T03:19:14.027Z,8.44
2022-11-06T03:22:03.953Z,8.48
2022-11-06T03:24:48.242Z,8.45
2022-11-06T03:27:18.967Z,8.46
2022-11-06T03:29:50.189Z,8.48
2022-11-06T03:32:53.480Z,8.45
2022-11-06T03:35:27.954Z,8.47
2022-11-06T03:38:00.456Z,8.43
2022-11-06T03:40:28.835Z,8.42
2022-11-06T03:42:56.428Z,8.46
2022-11-06T03:45:22.815Z,8.43
2022-11-06T03:47:53.091Z,8.44
2022-11-06T03:50:20.593Z,8.45
2022-11-06T03:52:51.368Z,8.43
2022-11-06T03:55:19.302Z,8.43
2022-11-06T03:57:52.155Z,8.42
2022-11-06T04:00:20.445Z,8.43
2022-11-06T04:03:04.476Z,8.40
2022-11-06T04:05:51.149Z,8.42
2022-11-06T04:08:36.061Z,8.45
2022-11-06T04:11:21.573Z,8.40
2022-11-06T04:14:04.274Z,8.41
2022-11-06T04:16:41.846Z,8.45
2022-11-06T04:19:16.484Z,8.41
2022-11-06T04:22:07.826Z,8.40
2022-11-06T04:24:55.828Z,8.40
2022-11-06T04:27:36.380Z,8.42
2022-11-06T04:30:13.716Z,8.41
2022-11-06T04:32:43.036Z,8.37
2022-11-06T04:35:30.831Z,8.30
2022-11-06T04:38:16.354Z,8.30
2022-11-06T04:40:58.224Z,8.27
2022-11-06T04:43:53.843Z,8.23
2022-11-06T04:46:22.692Z,8.21
2022-11-06T04:48:49.086Z,8.17
2022-11-06T04:51:15.487Z,8.15
2022-11-06T04:53:41.856Z,8.13
2022-11-06T04:56:13.024Z,8.13
2022-11-06T04:58:39.632Z,8.12
2022-11-06T05:01:06.125Z,8.10
2022-11-06T05:03:32.525Z,8.11
2022-11-06T05:05:58.868Z,8.12
2022-11-06T05:08:25.262Z,8.11
2022-11-06T05:10:51.611Z,8.05
2022-11-06T05:13:18.008Z,8.03
2022-11-06T05:15:44.412Z,8.04
2022-11-06T05:18:11.104Z,8.03
2022-11-06T05:20:37.919Z,8.05
2022-11-06T05:23:04.309Z,8.08
2022-11-06T05:25:31.623Z,8.03
2022-11-06T05:27:58.178Z,8.03
2022-11-06T05:30:24.808Z,8.04
2022-11-06T05:32:51.311Z,8.05
2022-11-06T05:35:18.033Z,8.05
2022-11-06T05:37:44.449Z,8.00
2022-11-06T05:40:11.155Z,7.98
2022-11-06T05:42:38.473Z,8.05
2022-11-06T05:45:05.308Z,8.05
2022-11-06T05:47:31.676Z,8.07
2022-11-06T05:49:58.052Z,8.07
2022-11-06T05:52:24.408Z,8.05
2022-11-06T05:54:50.772Z,8.05
2022-11-06T05:57:17.293Z,8.06
2022-11-06T05:59:44.043Z,8.07
2022-11-06T06:02:10.498Z,8.08
2022-11-06T06:04:36.929Z,8.10
2022-11-06T06:07:03.301Z,8.12
2022-11-06T06:09:29.696Z,8.17
2022-11-06T06:11:56.074Z,8.16
2022-11-06T06:14:22.652Z,8.15
2022-11-06T06:16:49.016Z,8.17
2022-11-06T06:19:15.399Z,8.23
2022-11-06T06:21:41.774Z,8.18
2022-11-06T06:24:08.294Z,8.19
2022-11-06T06:26:34.644Z,8.22
2022-11-06T06:29:02.092Z,8.23
2022-11-06T06:31:28.543Z,8.25
2022-11-06T06:33:54.877Z,8.26
2022-11-06T06:36:21.250Z,8.31
2022-11-06T06:38:47.599Z,8.30
2022-11-06T06:41:13.986Z,8.35
2022-11-06T06:43:40.339Z,8.37
2022-11-06T06:46:07.349Z,8.39
2022-11-06T06:48:33.819Z,8.44
2022-11-06T06:51:00.954Z,8.43
2022-11-06T06:53:27.517Z,8.45
2022-11-06T06:55:53.872Z,8.46
2022-11-06T06:58:20.904Z,8.48
2022-11-06T07:00:47.649Z,8.51
2022-11-06T07:03:14.130Z,8.55
2022-11-06T07:05:40.492Z,8.54
2022-11-06T07:08:06.893Z,8.58
2022-11-06T07:10:33.297Z,8.58
2022-11-06T07:13:03.637Z,8.60
2022-11-06T07:15:29.987Z,8.58
2022-11-06T07:18:01.444Z,8.60
2022-11-06T07:20:27.791Z,8.55
2022-11-06T07:22:54.177Z,8.55
2022-11-06T07:25:20.527Z,8.55
2022-11-06T07:27:46.870Z,8.55
2022-11-06T07:30:13.496Z,8.53
2022-11-06T07:32:39.826Z,8.53
2022-11-06T07:35:06.754Z,8.49
2022-11-06T07:37:33.469Z,8.47
2022-11-06T07:39:59.859Z,8.47
2022-11-06T07:42:26.208Z,8.45
2022-11-06T07:44:55.354Z,8.47
2022-11-06T07:47:22.396Z,8.41
2022-11-06T07:49:51.127Z,8.40
2022-11-06T07:52:17.720Z,8.38
2022-11-06T07:54:44.063Z,8.41
2022-11-06T07:57:10.431Z,8.39
2022-11-06T07:59:36.779Z,8.44
2022-11-06T08:02:03.223Z,8.49
2022-11-06T08:04:29.633Z,8.53
2022-11-06T08:06:57.470Z,8.58
2022-11-06T08:09:25.112Z,8.61
2022-11-06T08:11:51.474Z,8.67
2022-11-06T08:14:17.808Z,8.70
2022-11-06T08:16:44.160Z,8.70
2022-11-06T08:19:10.498Z,8.73
2022-11-06T08:21:36.854Z,8.77
2022-11-06T08:24:04.026Z,8.80
2022-11-06T08:26:30.379Z,8.80
2022-11-06T08:28:57.628Z,8.81
2022-11-06T08:31:24.256Z,8.85
2022-11-06T08:33:50.608Z,8.90
2022-11-06T08:36:17.037Z,8.94
2022-11-06T08:38:43.413Z,9.02
2022-11-06T08:41:11.327Z,9.08
2022-11-06T08:43:37.719Z,9.17
2022-11-06T08:46:05.259Z,9.23
2022-11-06T08:48:32.611Z,9.30
2022-11-06T08:50:59.083Z,9.40
2022-11-06T08:53:25.568Z,9.44
2022-11-06T08:55:52.059Z,9.50
2022-11-06T08:58:18.474Z,9.54
2022-11-06T09:00:44.942Z,9.56
2022-11-06T09:03:13.656Z,9.63
2022-11-06T09:05:41.693Z,9.67
2022-11-06T09:08:08.529Z,9.72
2022-11-06T09:10:34.999Z,9.77
2022-11-06T09:13:01.357Z,9.80
2022-11-06T09:15:27.767Z,9.88
2022-11-06T09:17:54.305Z,9.90
2022-11-06T09:20:21.866Z,9.91
2022-11-06T09:22:48.364Z,9.97
2022-11-06T09:25:14.890Z,10.02
2022-11-06T09:27:55.654Z,10.07
2022-11-06T09:30:24.356Z,10.10
2022-11-06T09:32:52.509Z,10.12
2022-11-06T09:35:19.284Z,10.12
2022-11-06T09:37:45.666Z,10.20
2022-11-06T09:40:24.846Z,10.26
2022-11-06T09:42:57.007Z,10.35
2022-11-06T09:45:24.760Z,10.42
2022-11-06T09:47:54.761Z,10.55
2022-11-06T09:50:24.075Z,10.67
2022-11-06T09:52:55.165Z,10.81
2022-11-06T09:55:23.543Z,10.82
2022-11-06T09:57:53.317Z,10.93
2022-11-06T10:00:19.829Z,10.95
2022-11-06T10:02:50.189Z,10.98
2022-11-06T10:05:33.849Z,10.94
2022-11-06T10:08:01.573Z,11.00
2022-11-06T10:10:40.725Z,11.02
2022-11-06T10:13:17.108Z,11.09
2022-11-06T10:16:17.775Z,11.10
2022-11-06T10:18:56.576Z,11.14
2022-11-06T10:21:25.389Z,11.18
2022-11-06T10:23:57.970Z,11.23
2022-11-06T10:26:33.897Z,11.26
2022-11-06T10:29:28.511Z,11.30
2022-11-06T10:32:10.035Z,11.36
2022-11-06T10:34:39.872Z,11.47
2022-11-06T10:37:10.533Z,11.50
2022-11-06T10:39:36.967Z,11.50
2022-11-06T10:42:12.083Z,11.48
2022-11-06T10:44:40.435Z,11.50
2022-11-06T10:47:13.148Z,11.58
2022-11-06T10:49:46.683Z,11.59
2022-11-06T10:52:26.183Z,11.60
2022-11-06T10:55:02.414Z,11.65
2022-11-06T10:57:43.488Z,11.69
2022-11-06T11:00:14.003Z,11.74
2022-11-06T11:02:43.869Z,11.71
2022-11-06T11:05:14.683Z,11.73
2022-11-06T11:07:41.056Z,11.80
2022-11-06T11:10:30.204Z,11.89
2022-11-06T11:12:58.206Z,12.12
2022-11-06T11:15:31.365Z,12.21
2022-11-06T11:18:17.251Z,12.40
2022-11-06T11:20:50.817Z,12.54
2022-11-06T11:23:25.600Z,12.65
2022-11-06T11:25:56.235Z,12.60
2022-11-06T11:28:35.915Z,12.48
2022-11-06T11:31:09.735Z,12.52
2022-11-06T11:33:36.277Z,12.56
2022-11-06T11:36:05.293Z,12.75
2022-11-06T11:38:31.901Z,12.75
2022-11-06T11:41:30.709Z,12.80
2022-11-06T11:44:16.250Z,12.80
2022-11-06T11:46:46.569Z,12.86
2022-11-06T11:49:32.942Z,12.87
2022-11-06T11:52:00.971Z,12.86
2022-11-06T11:54:29.033Z,12.97
2022-11-06T11:57:20.030Z,12.94
2022-11-06T11:59:48.039Z,12.82
2022-11-06T12:02:26.461Z,12.88
2022-11-06T12:04:58.750Z,13.06
2022-11-06T12:07:29.151Z,13.06
2022-11-06T12:09:55.573Z,13.04
2022-11-06T12:12:24.097Z,13.10
2022-11-06T12:15:07.200Z,13.08
2022-11-06T12:17:34.026Z,13.11
2022-11-06T12:20:00.389Z,13.20
2022-11-06T12:22:37.842Z,13.18
2022-11-06T12:25:25.236Z,13.29
2022-11-06T12:27:53.845Z,13.32
2022-11-06T12:30:20.333Z,13.43
2022-11-06T12:33:01.399Z,13.42
2022-11-06T12:35:29.319Z,13.45
2022-11-06T12:38:35.855Z,13.47
2022-11-06T12:41:20.964Z,13.47
2022-11-06T12:43:48.565Z,13.48
2022-11-06T12:46:40.364Z,13.65
2022-11-06T12:49:31.906Z,13.66
2022-11-06T12:52:10.560Z,13.57
2022-11-06T12:54:59.045Z,13.75
2022-11-06T12:57:40.609Z,13.78
2022-11-06T13:00:20.253Z,13.83
2022-11-06T13:03:01.848Z,13.75
2022-11-06T13:05:35.362Z,13.56
2022-11-06T13:08:13.948Z,13.44
2022-11-06T13:11:14.760Z,13.36
2022-11-06T13:14:02.747Z,13.31
2022-11-06T13:17:01.023Z,13.43
2022-11-06T13:19:35.236Z,13.65
2022-11-06T13:22:24.904Z,13.88
2022-11-06T13:25:03.341Z,14.15
2022-11-06T13:27:42.502Z,14.16
2022-11-06T13:30:16.124Z,14.16
2022-11-06T13:32:48.446Z,13.99
2022-11-06T13:35:18.757Z,13.94
2022-11-06T13:37:47.212Z,13.93
2022-11-06T13:40:22.752Z,13.79
2022-11-06T13:42:55.646Z,13.60
2022-11-06T13:45:22.030Z,13.64
2022-11-06T13:47:57.165Z,13.54
2022-11-06T13:50:32.623Z,13.40
2022-11-06T13:52:58.955Z,13.37
2022-11-06T13:55:36.573Z,13.42
2022-11-06T13:58:12.507Z,13.39
2022-11-06T14:00:57.840Z,13.23
2022-11-06T14:03:36.129Z,13.16
2022-11-06T14:06:06.739Z,13.12
2022-11-06T14:08:38.633Z,13.15
2022-11-06T14:11:12.515Z,13.07
2022-11-06T14:13:38.975Z,13.00
2022-11-06T14:16:14.652Z,12.96
2022-11-06T14:18:41.008Z,12.92
2022-11-06T14:21:27.481Z,12.76
2022-11-06T14:24:14.511Z,12.69
2022-11-06T14:26:47.495Z,12.58
2022-11-06T14:29:25.738Z,12.41
2022-11-06T14:31:59.804Z,12.33
2022-11-06T14:34:29.996Z,12.30
2022-11-06T14:36:56.397Z,12.32
2022-11-06T14:39:52.382Z,12.25
2022-11-06T14:42:22.939Z,12.24
2022-11-06T14:45:11.838Z,12.37
2022-11-06T14:47:52.541Z,12.26
2022-11-06T14:50:18.886Z,12.16
2022-11-06T14:52:49.626Z,12.07
2022-11-06T14:56:00.921Z,11.94
2022-11-06T14:58:28.390Z,11.88
2022-11-06T15:01:09.892Z,11.84
2022-11-06T15:03:52.828Z,11.90
2022-11-06T15:06:19.214Z,11.79
2022-11-06T15:08:45.570Z,11.73
2022-11-06T15:11:30.299Z,11.63
2022-11-06T15:13:57.000Z,11.58
2022-11-06T15:16:23.350Z,11.56
2022-11-06T15:18:49.801Z,11.49
2022-11-06T15:21:20.772Z,11.34
2022-11-06T15:23:55.486Z,11.27
2022-11-06T15:26:41.841Z,11.21
2022-11-06T15:29:17.297Z,11.07
2022-11-06T15:31:47.820Z,11.07
2022-11-06T15:34:26.176Z,11.03
2022-11-06T15:36:54.454Z,11.01
2022-11-06T15:39:23.148Z,10.94
2022-11-06T15:41:52.020Z,10.85
2022-11-06T15:44:19.974Z,10.75
2022-11-06T15:46:55.669Z,10.67
2022-11-06T15:49:22.115Z,10.56
2022-11-06T15:51:56.096Z,10.46
2022-11-06T15:54:36.246Z,10.42
2022-11-06T15:57:05.146Z,10.42
2022-11-06T15:59:31.517Z,10.43
2022-11-06T16:01:57.972Z,10.36
2022-11-06T16:04:24.796Z,10.22
2022-11-06T16:06:54.998Z,10.10
2022-11-06T16:09:22.757Z,10.00
2022-11-06T16:11:51.338Z,9.87
2022-11-06T16:14:17.886Z,9.92
2022-11-06T16:16:51.592Z,9.89
2022-11-06T16:19:31.880Z,9.95
2022-11-06T16:22:07.446Z,9.89
2022-11-06T16:24:41.802Z,9.62
2022-11-06T16:27:08.174Z,9.49
2022-11-06T16:29:34.719Z,9.52
2022-11-06T16:32:04.322Z,9.48
2022-11-06T16:34:30.655Z,9.39
2022-11-06T16:37:00.918Z,9.37
2022-11-06T16:39:47.757Z,9.34
2022-11-06T16:42:35.852Z,9.38
2022-11-06T16:45:08.475Z,9.58
2022-11-06T16:47:34.873Z,9.87
2022-11-06T16:50:02.535Z,9.94
2022-11-06T16:52:33.053Z,9.86
2022-11-06T16:55:03.756Z,9.79
2022-11-06T16:57:42.520Z,9.79
2022-11-06T17:00:21.092Z,9.83
2022-11-06T17:02:58.517Z,9.77
2022-11-06T17:05:29.078Z,9.74
2022-11-06T17:08:04.728Z,9.72
2022-11-06T17:10:34.077Z,9.60
2022-11-06T17:13:13.216Z,9.44
2022-11-06T17:15:40.622Z,9.40
2022-11-06T17:18:06.966Z,9.43
2022-11-06T17:20:33.567Z,9.35
2022-11-06T17:22:59.909Z,9.27
2022-11-06T17:25:26.258Z,9.22
2022-11-06T17:27:52.602Z,9.14
2022-11-06T17:30:18.950Z,9.07
2022-11-06T17:32:45.314Z,9.00
2022-11-06T17:35:11.679Z,8.99
2022-11-06T17:37:38.105Z,8.96
2022-11-06T17:40:05.117Z,8.98
2022-11-06T17:42:31.642Z,8.92
2022-11-06T17:44:58.032Z,8.85
2022-11-06T17:47:24.391Z,8.83
2022-11-06T17:49:50.908Z,8.86
2022-11-06T17:52:17.280Z,8.80
2022-11-06T17:54:43.636Z,8.74
2022-11-06T17:57:10.088Z,8.80
2022-11-06T17:59:36.449Z,8.88
2022-11-06T18:02:02.941Z,8.96
2022-11-06T18:04:34.092Z,9.03
2022-11-06T18:07:00.725Z,9.10
2022-11-06T18:09:27.087Z,9.24
2022-11-06T18:11:54.300Z,9.38
2022-11-06T18:14:21.248Z,9.39
2022-11-06T18:16:48.123Z,9.35
2022-11-06T18:19:16.520Z,9.43
2022-11-06T18:21:43.003Z,9.47
2022-11-06T18:24:09.397Z,9.49
2022-11-06T18:26:37.339Z,9.48
2022-11-06T18:29:04.663Z,9.43
2022-11-06T18:31:31.019Z,9.39
2022-11-06T18:33:57.409Z,9.29
2022-11-06T18:36:23.772Z,9.16
2022-11-06T18:38:50.158Z,9.14
2022-11-06T18:41:20.573Z,9.05
2022-11-06T18:43:46.945Z,8.99
2022-11-06T18:46:15.816Z,8.93
2022-11-06T18:48:42.228Z,8.93
2022-11-06T18:51:27.773Z,8.92
2022-11-06T18:54:00.695Z,8.88
2022-11-06T18:56:27.285Z,8.88
2022-11-06T18:58:54.566Z,8.91
2022-11-06T19:01:22.791Z,8.96
2022-11-06T19:03:49.252Z,9.05
2022-11-06T19:06:17.762Z,9.06
2022-11-06T19:08:45.271Z,9.14
2022-11-06T19:11:13.612Z,9.29
2022-11-06T19:13:44.774Z,9.48
2022-11-06T19:16:13.836Z,9.60
2022-11-06T19:18:40.400Z,9.60
2022-11-06T19:21:09.097Z,9.49
2022-11-06T19:23:40.022Z,9.45
2022-11-06T19:28:58.198Z,9.40
2022-11-06T19:31:28.739Z,9.39
2022-11-06T19:33:59.079Z,9.44
2022-11-06T19:36:25.669Z,9.48
2022-11-06T19:38:52.402Z,9.58
2022-11-06T19:41:18.780Z,9.57
2022-11-06T19:43:45.165Z,9.51
2022-11-06T19:46:11.669Z,9.42
2022-11-06T19:48:38.091Z,9.34
2022-11-06T19:51:11.548Z,9.32
2022-11-06T19:53:38.341Z,9.30
2022-11-06T19:56:05.808Z,9.34
2022-11-06T19:58:32.413Z,9.36
2022-11-06T20:00:58.825Z,9.35
2022-11-06T20:03:25.225Z,9.32
2022-11-06T20:05:54.500Z,9.31
2022-11-06T20:08:20.916Z,9.32
2022-11-06T20:10:47.289Z,9.30
2022-11-06T20:13:13.998Z,9.30
2022-11-06T20:15:40.627Z,9.26
2022-11-06T20:18:07.045Z,9.28
2022-11-06T20:20:36.297Z,9.25
2022-11-06T20:23:03.259Z,9.26
2022-11-06T20:25:29.960Z,9.17
2022-11-06T20:27:56.349Z,9.17
2022-11-06T20:30:22.931Z,9.17
2022-11-06T20:32:49.329Z,9.07
2022-11-06T20:35:16.965Z,9.02
2022-11-06T20:37:44.249Z,9.03
2022-11-06T20:40:11.072Z,9.09
2022-11-06T20:42:37.527Z,9.21
2022-11-06T20:45:04.741Z,9.24
2022-11-06T20:47:31.513Z,9.21
2022-11-06T20:49:57.877Z,9.22
2022-11-06T20:52:24.271Z,9.14
2022-11-06T20:54:50.644Z,9.05
2022-11-06T20:57:17.064Z,8.95
2022-11-06T20:59:43.440Z,8.95
2022-11-06T21:02:11.155Z,8.95
2022-11-06T21:04:37.840Z,8.94
2022-11-06T21:07:04.202Z,8.95
2022-11-06T21:09:30.647Z,8.92
2022-11-06T21:11:57.253Z,8.93
2022-11-06T21:14:23.734Z,8.88
2022-11-06T21:16:50.086Z,8.92
2022-11-06T21:19:16.438Z,8.88
2022-11-06T21:21:42.821Z,8.89
2022-11-06T21:24:09.359Z,8.89
2022-11-06T21:26:36.995Z,8.85
2022-11-06T21:29:07.806Z,8.87
2022-11-06T21:31:34.403Z,8.82
2022-11-06T21:34:01.713Z,8.85
2022-11-06T21:36:32.826Z,8.79
2022-11-06T21:39:00.856Z,8.82
2022-11-06T21:41:29.042Z,8.84
2022-11-06T21:43:55.878Z,8.80
2022-11-06T21:46:22.339Z,8.76
2022-11-06T21:48:49.378Z,8.74
2022-11-06T21:51:34.373Z,8.73
2022-11-06T21:54:19.318Z,8.80
2022-11-06T21:56:49.393Z,8.79
2022-11-06T21:59:17.088Z,8.82
2022-11-06T22:01:43.651Z,8.80
2022-11-06T22:04:10.732Z,8.90
2022-11-06T22:06:39.563Z,8.93
2022-11-06T22:09:05.925Z,8.92
2022-11-06T22:11:33.709Z,8.94
2022-11-06T22:14:01.910Z,8.96
2022-11-06T22:16:34.767Z,8.97
2022-11-06T22:19:01.241Z,8.98
2022-11-06T22:21:28.775Z,9.04
2022-11-06T22:23:55.211Z,9.07
2022-11-06T22:26:23.255Z,9.08
2022-11-06T22:28:57.534Z,9.15
2022-11-06T22:31:24.035Z,9.27
2022-11-06T22:33:53.679Z,9.40
2022-11-06T22:36:20.834Z,9.41
2022-11-06T22:38:47.310Z,9.42
2022-11-06T22:41:15.385Z,9.47
2022-11-06T22:43:42.304Z,9.45
2022-11-06T22:46:12.153Z,9.44
2022-11-06T22:48:38.709Z,9.43
2022-11-06T22:51:06.960Z,9.44
2022-11-06T22:53:33.518Z,9.46
2022-11-06T22:55:59.961Z,9.48
2022-11-06T22:58:26.937Z,9.49
2022-11-06T23:00:53.451Z,9.46
2022-11-06T23:03:20.189Z,9.47
2022-11-06T23:05:46.707Z,9.45
2022-11-06T23:08:13.508Z,9.44
2022-11-06T23:10:39.998Z,9.44
2022-11-06T23:13:06.376Z,9.42
2022-11-06T23:15:32.870Z,9.38
2022-11-06T23:17:59.470Z,9.39
2022-11-06T23:20:25.953Z,9.38
2022-11-06T23:22:52.936Z,9.33
2022-11-06T23:25:22.271Z,9.33
2022-11-06T23:27:49.923Z,9.34
2022-11-06T23:30:16.552Z,9.35
2022-11-06T23:32:43.084Z,9.31
2022-11-06T23:35:13.735Z,9.30
2022-11-06T23:37:41.224Z,9.29
2022-11-06T23:40:08.248Z,9.28
2022-11-06T23:42:34.620Z,9.28
2022-11-06T23:45:19.623Z,9.28
2022-11-06T23:47:48.066Z,9.30
2022-11-06T23:50:14.459Z,9.30
2022-11-06T23:52:40.827Z,9.30
2022-11-06T23:55:07.549Z,9.31
2022-11-06T23:57:33.940Z,9.28
